Main page
METAR-TAF:

METAR-TAF

Airports :

Tiree Airport

Tiree, Scotland

latitude: 56-30N, longitude: 006-53W, elevation: 12 m

Current weather observation

The report was made 42 minutes ago, at 12:20 UTC
Wind 10 kt from the South, varying between South/Southeast and Southwest
Temperature 6°C
Humidity 87%
Pressure 1031 hPa
Visibility 10 km or more

METAR: EGPU 021220Z AUTO 18010KT 150V220 9999 OVC010/// 06/04 Q1031

Time: 13:02 (13:02 UTC)

Forecast

The report was made 2 hours and 1 minutes ago, at 11:01 UTC
Forecast valid from 02 at 12 UTC to 02 at 19 UTC
Wind 9 kt from the South/Southeast
Visibility 10 km or more
Scattered clouds at a height of 1000 ft
Temporary
from 02 at 12 UTC to 02 at 19 UTC
Visibility: 7000 m
Broken clouds at a height of 800 ft

TAF: EGPU 021101Z 0212/0219 16009KT 9999 SCT010 TEMPO 0212/0219 7000 BKN008

Weather observations and forecasts of more than 4000 airports (METAR and TAF reports).

The available stations are represented by yellow and red dots on the map.

Hover mouse over dot to see the name of the station.

Then click to see weather observations and forecasts.

To change the map : click on the green buttons with a black cross to zoom in, on the green button with a dash to zoom out, or on the green arrows for adjacent maps.


METAR-TAF: